createdAt,value
2018-12-18T00:00:14.179Z,100918.99
2018-12-18T00:02:42.965Z,100910.09
2018-12-18T00:05:16.706Z,100911.87
2018-12-18T00:07:45.148Z,100904.78
2018-12-18T00:10:13.704Z,100905.56
2018-12-18T00:12:42.080Z,100897.09
2018-12-18T00:15:10.692Z,100892.35
2018-12-18T00:17:39.174Z,100893.02
2018-12-18T00:20:07.683Z,100891.69
2018-12-18T00:22:36.059Z,100889.00
2018-12-18T00:25:05.199Z,100878.95
2018-12-18T00:27:33.656Z,100880.05
2018-12-18T00:30:02.067Z,100887.73
2018-12-18T00:32:30.430Z,100883.54
2018-12-18T00:34:58.831Z,100882.78
2018-12-18T00:37:27.188Z,100874.59
2018-12-18T00:39:55.548Z,100873.05
2018-12-18T00:42:23.936Z,100874.85
2018-12-18T00:44:52.307Z,100872.20
2018-12-18T00:47:20.691Z,100867.67
2018-12-18T00:49:49.054Z,100867.47
2018-12-18T00:52:17.443Z,100876.62
2018-12-18T00:54:45.802Z,100867.42
2018-12-18T00:57:14.188Z,100867.96
2018-12-18T00:59:42.550Z,100864.09
2018-12-18T01:02:10.926Z,100862.92
2018-12-18T01:04:39.323Z,100864.44
2018-12-18T01:07:08.759Z,100860.55
2018-12-18T01:09:37.312Z,100867.84
2018-12-18T01:12:05.836Z,100857.73
2018-12-18T01:14:34.324Z,100859.91
2018-12-18T01:17:02.961Z,100857.35
2018-12-18T01:19:31.460Z,100851.02
2018-12-18T01:22:00.107Z,100850.30
2018-12-18T01:24:28.723Z,100856.76
2018-12-18T01:26:57.114Z,100852.19
2018-12-18T01:29:25.494Z,100853.12
2018-12-18T01:31:53.995Z,100862.31
2018-12-18T01:34:22.369Z,100855.13
2018-12-18T01:36:50.759Z,100849.92
2018-12-18T01:39:19.124Z,100865.08
2018-12-18T01:41:47.499Z,100866.63
2018-12-18T01:44:16.168Z,100868.59
2018-12-18T01:46:44.566Z,100862.52
2018-12-18T01:49:13.063Z,100867.17
2018-12-18T01:51:41.471Z,100870.95
2018-12-18T01:54:09.960Z,100870.87
2018-12-18T01:56:38.351Z,100866.80
2018-12-18T01:59:06.716Z,100869.78
2018-12-18T02:01:35.107Z,100868.52
2018-12-18T02:04:06.156Z,100864.41
2018-12-18T02:06:34.735Z,100861.42
2018-12-18T02:09:05.520Z,100855.30
2018-12-18T02:11:33.891Z,100852.33
2018-12-18T02:14:02.878Z,100847.12
2018-12-18T02:16:31.348Z,100851.48
2018-12-18T02:18:59.940Z,100850.63
2018-12-18T02:21:28.337Z,100841.83
2018-12-18T02:23:56.704Z,100842.37
2018-12-18T02:26:25.091Z,100842.16
2018-12-18T02:28:53.457Z,100838.42
2018-12-18T02:31:21.859Z,100840.09
2018-12-18T02:33:50.225Z,100838.75
2018-12-18T02:36:18.605Z,100844.52
2018-12-18T02:38:47.000Z,100842.45
2018-12-18T02:41:15.455Z,100844.13
2018-12-18T02:43:43.836Z,100845.85
2018-12-18T02:46:12.193Z,100837.25
2018-12-18T02:48:40.571Z,100845.52
2018-12-18T02:51:09.023Z,100843.84
2018-12-18T02:53:37.412Z,100844.09
2018-12-18T02:56:06.013Z,100840.70
2018-12-18T02:58:34.410Z,100840.16
2018-12-18T03:01:02.793Z,100841.91
2018-12-18T03:03:31.417Z,100848.12
2018-12-18T03:05:59.936Z,100858.27
2018-12-18T03:08:28.337Z,100864.16
2018-12-18T03:10:56.722Z,100867.97
2018-12-18T03:13:25.123Z,100860.63
2018-12-18T03:15:53.527Z,100849.88
2018-12-18T03:18:21.911Z,100836.86
2018-12-18T03:20:50.948Z,100832.08
2018-12-18T03:23:19.340Z,100832.20
2018-12-18T03:25:47.711Z,100829.09
2018-12-18T03:28:16.112Z,100827.20
2018-12-18T03:30:44.494Z,100823.11
2018-12-18T03:33:13.003Z,100816.39
2018-12-18T03:35:41.408Z,100812.37
2018-12-18T03:38:09.822Z,100802.75
2018-12-18T03:40:38.211Z,100802.09
2018-12-18T03:43:06.604Z,100798.12
2018-12-18T03:45:34.983Z,100797.41
2018-12-18T03:48:03.365Z,100801.53
2018-12-18T03:50:31.755Z,100804.25
2018-12-18T03:53:00.116Z,100797.84
2018-12-18T03:55:28.515Z,100802.63
2018-12-18T03:57:56.885Z,100802.42
2018-12-18T04:00:25.382Z,100810.63
2018-12-18T04:02:53.747Z,100811.28
2018-12-18T04:05:22.144Z,100821.27
2018-12-18T04:07:50.515Z,100809.23
2018-12-18T04:10:18.908Z,100809.13
2018-12-18T04:12:48.234Z,100820.37
2018-12-18T04:15:17.269Z,100824.05
2018-12-18T04:17:45.653Z,100816.11
2018-12-18T04:20:14.755Z,100809.32
2018-12-18T04:22:43.215Z,100811.16
2018-12-18T04:25:11.752Z,100802.63
2018-12-18T04:27:40.133Z,100811.17
2018-12-18T04:30:08.870Z,100823.20
2018-12-18T04:32:37.333Z,100821.37
2018-12-18T04:35:06.140Z,100813.45
2018-12-18T04:37:34.662Z,100809.92
2018-12-18T04:40:03.098Z,100807.94
2018-12-18T04:42:31.479Z,100813.93
2018-12-18T04:44:59.849Z,100818.94
2018-12-18T04:47:28.249Z,100813.19
2018-12-18T04:49:56.619Z,100825.28
2018-12-18T04:52:25.012Z,100827.16
2018-12-18T04:54:53.403Z,100829.58
2018-12-18T04:57:22.686Z,100827.02
2018-12-18T04:59:51.169Z,100827.75
2018-12-18T05:02:19.793Z,100827.18
2018-12-18T05:04:50.503Z,100829.58
2018-12-18T05:07:18.815Z,100829.58
2018-12-18T05:09:47.460Z,100826.53
2018-12-18T05:12:15.864Z,100826.03
2018-12-18T05:14:44.233Z,100828.55
2018-12-18T05:17:12.642Z,100834.36
2018-12-18T05:19:41.622Z,100827.84
2018-12-18T05:22:09.992Z,100831.50
2018-12-18T05:24:38.379Z,100824.66
2018-12-18T05:27:07.492Z,100828.21
2018-12-18T05:29:35.872Z,100833.05
2018-12-18T05:32:04.253Z,100838.52
2018-12-18T05:34:32.646Z,100842.15
2018-12-18T05:37:01.015Z,100859.94
2018-12-18T05:39:32.543Z,100856.30
2018-12-18T05:42:01.087Z,100853.10
2018-12-18T05:44:29.615Z,100848.15
2018-12-18T05:46:58.095Z,100850.73
2018-12-18T05:49:26.645Z,100854.28
2018-12-18T05:51:55.501Z,100851.27
2018-12-18T05:54:24.555Z,100851.70
2018-12-18T05:56:53.243Z,100848.23
2018-12-18T05:59:21.745Z,100851.37
2018-12-18T06:01:50.240Z,100843.97
2018-12-18T06:04:18.785Z,100849.47
2018-12-18T06:06:47.352Z,100845.55
2018-12-18T06:09:15.928Z,100849.48
2018-12-18T06:11:44.443Z,100850.82
2018-12-18T06:14:12.911Z,100850.78
2018-12-18T06:16:41.613Z,100855.89
2018-12-18T06:19:10.143Z,100845.30
2018-12-18T06:21:38.632Z,100853.03
2018-12-18T06:24:07.141Z,100854.37
2018-12-18T06:26:35.626Z,100844.21
2018-12-18T06:29:04.112Z,100846.84
2018-12-18T06:31:32.619Z,100854.22
2018-12-18T06:34:01.099Z,100854.22
2018-12-18T06:36:29.606Z,100867.59
2018-12-18T06:38:58.593Z,100867.94
2018-12-18T06:41:27.083Z,100862.78
2018-12-18T06:43:55.579Z,100865.95
2018-12-18T06:46:24.044Z,100880.94
2018-12-18T06:48:52.403Z,100878.55
2018-12-18T06:51:20.791Z,100875.38
2018-12-18T06:53:49.198Z,100878.76
2018-12-18T06:56:18.179Z,100878.91
2018-12-18T06:58:46.548Z,100868.20
2018-12-18T07:01:14.957Z,100869.28
2018-12-18T07:03:43.317Z,100866.91
2018-12-18T07:06:11.719Z,100865.56
2018-12-18T07:08:40.072Z,100861.94
2018-12-18T07:11:08.443Z,100863.13
2018-12-18T07:13:37.048Z,100849.91
2018-12-18T07:16:06.462Z,100847.19
2018-12-18T07:18:34.828Z,100833.75
2018-12-18T07:21:03.212Z,100825.98
2018-12-18T07:23:32.191Z,100819.59
2018-12-18T07:26:00.580Z,100813.28
2018-12-18T07:28:28.956Z,100806.91
2018-12-18T07:30:57.469Z,100801.62
2018-12-18T07:33:25.843Z,100794.34
2018-12-18T07:35:54.328Z,100789.19
2018-12-18T07:38:22.707Z,100791.02
2018-12-18T07:40:51.131Z,100790.68
2018-12-18T07:43:19.519Z,100794.60
2018-12-18T07:45:47.903Z,100794.90
2018-12-18T07:48:16.280Z,100796.30
2018-12-18T07:50:44.659Z,100802.40
2018-12-18T07:53:13.064Z,100801.60
2018-12-18T07:55:41.429Z,100799.37
2018-12-18T07:58:09.821Z,100796.95
2018-12-18T08:00:38.190Z,100799.69
2018-12-18T08:03:06.583Z,100799.72
2018-12-18T08:05:35.023Z,100802.09
2018-12-18T08:08:03.414Z,100804.13
2018-12-18T08:10:31.783Z,100802.03
2018-12-18T08:13:00.170Z,100790.82
2018-12-18T08:15:28.572Z,100812.66
2018-12-18T08:17:56.979Z,100815.80
2018-12-18T08:20:25.350Z,100823.00
2018-12-18T08:22:53.748Z,100830.67
2018-12-18T08:25:22.243Z,100827.55
2018-12-18T08:27:50.635Z,100815.61
2018-12-18T08:30:19.006Z,100819.64
2018-12-18T08:32:47.400Z,100816.80
2018-12-18T08:35:15.766Z,100806.31
2018-12-18T08:37:44.149Z,100803.91
2018-12-18T08:40:12.578Z,100799.52
2018-12-18T08:42:41.433Z,100800.16
2018-12-18T08:45:10.047Z,100796.84
2018-12-18T08:47:38.465Z,100800.16
2018-12-18T08:50:08.437Z,100780.62
2018-12-18T08:52:36.849Z,100775.83
2018-12-18T08:55:05.826Z,100766.08
2018-12-18T08:57:34.379Z,100761.29
2018-12-18T09:00:02.935Z,100761.09
2018-12-18T09:02:31.372Z,100750.83
2018-12-18T09:04:59.744Z,100749.35
2018-12-18T09:07:28.123Z,100750.67
2018-12-18T09:09:56.511Z,100755.59
2018-12-18T09:12:24.909Z,100753.09
2018-12-18T09:14:57.339Z,100758.20
2018-12-18T09:17:31.433Z,100753.78
2018-12-18T09:19:59.805Z,100746.33
2018-12-18T09:22:28.197Z,100744.77
2018-12-18T09:24:56.677Z,100746.91
2018-12-18T09:27:25.065Z,100745.39
2018-12-18T09:29:53.433Z,100745.22
2018-12-18T09:32:21.801Z,100733.70
2018-12-18T09:34:50.173Z,100746.71
2018-12-18T09:37:18.552Z,100752.84
2018-12-18T09:39:46.911Z,100754.84
2018-12-18T09:42:20.574Z,100749.95
2018-12-18T09:44:48.932Z,100743.88
2018-12-18T09:47:17.299Z,100728.27
2018-12-18T09:49:45.683Z,100717.02
2018-12-18T09:52:14.081Z,100710.80
2018-12-18T09:54:42.511Z,100691.69
2018-12-18T09:57:16.204Z,100683.62
2018-12-18T09:59:46.204Z,100666.55
2018-12-18T10:02:14.680Z,100671.50
2018-12-18T10:04:43.351Z,100661.22
2018-12-18T10:07:11.726Z,100662.94
2018-12-18T10:09:40.101Z,100652.23
2018-12-18T10:12:08.528Z,100642.72
2018-12-18T10:14:37.463Z,100627.46
2018-12-18T10:17:05.875Z,100622.05
2018-12-18T10:19:34.286Z,100614.56
2018-12-18T10:22:02.664Z,100615.50
2018-12-18T10:24:31.041Z,100613.83
2018-12-18T10:26:59.417Z,100612.59
2018-12-18T10:29:27.799Z,100601.89
2018-12-18T10:31:56.175Z,100601.57
2018-12-18T10:34:24.579Z,100596.75
2018-12-18T10:36:52.939Z,100599.41
2018-12-18T10:39:21.847Z,100590.89
2018-12-18T10:41:50.927Z,100588.66
2018-12-18T10:44:19.333Z,100584.56
2018-12-18T10:46:47.722Z,100578.12
2018-12-18T10:49:23.688Z,100576.83
2018-12-18T10:51:53.173Z,100568.76
2018-12-18T10:54:21.581Z,100564.09
2018-12-18T10:56:49.960Z,100551.89
2018-12-18T10:59:18.350Z,100557.84
2018-12-18T11:01:47.983Z,100551.54
2018-12-18T11:04:16.722Z,100537.97
2018-12-18T11:06:45.095Z,100534.17
2018-12-18T11:09:14.140Z,100524.74
2018-12-18T11:11:42.614Z,100522.24
2018-12-18T11:14:11.095Z,100517.52
2018-12-18T11:16:39.511Z,100523.08
2018-12-18T11:19:07.952Z,100520.98
2018-12-18T11:21:36.341Z,100514.09
2018-12-18T11:24:04.952Z,100505.50
2018-12-18T11:26:33.324Z,100509.29
2018-12-18T11:29:01.715Z,100503.98
2018-12-18T11:31:30.108Z,100504.50
2018-12-18T11:33:58.499Z,100501.22
2018-12-18T11:36:26.871Z,100495.19
2018-12-18T11:38:55.289Z,100486.89
2018-12-18T11:41:23.664Z,100482.77
2018-12-18T11:43:52.062Z,100478.56
2018-12-18T11:46:20.438Z,100468.52
2018-12-18T11:48:48.820Z,100477.13
2018-12-18T11:51:17.183Z,100462.29
2018-12-18T11:53:45.587Z,100459.23
2018-12-18T11:56:13.939Z,100452.69
2018-12-18T11:58:42.366Z,100457.87
2018-12-18T12:01:10.930Z,100469.95
2018-12-18T12:03:39.326Z,100466.84
2018-12-18T12:06:08.250Z,100476.38
2018-12-18T12:08:36.618Z,100474.42
2018-12-18T12:11:04.996Z,100475.41
2018-12-18T12:13:33.480Z,100483.95
2018-12-18T12:16:01.879Z,100489.58
2018-12-18T12:18:30.258Z,100476.92
2018-12-18T12:20:59.234Z,100480.94
2018-12-18T12:23:27.641Z,100476.02
2018-12-18T12:25:56.040Z,100468.95
2018-12-18T12:28:24.415Z,100463.35
2018-12-18T12:30:52.792Z,100453.66
2018-12-18T12:33:21.187Z,100443.17
2018-12-18T12:35:49.587Z,100440.56
2018-12-18T12:38:17.956Z,100437.41
2018-12-18T12:40:46.350Z,100434.27
2018-12-18T12:43:14.742Z,100436.89
2018-12-18T12:45:43.126Z,100428.56
2018-12-18T12:48:11.496Z,100427.45
2018-12-18T12:50:40.348Z,100422.80
2018-12-18T12:53:08.705Z,100419.86
2018-12-18T12:55:37.143Z,100413.19
2018-12-18T12:58:05.516Z,100417.56
2018-12-18T13:00:34.020Z,100410.86
2018-12-18T13:03:02.402Z,100404.07
2018-12-18T13:05:30.796Z,100394.17
2018-12-18T13:07:59.177Z,100397.78
2018-12-18T13:10:27.565Z,100390.36
2018-12-18T13:12:55.963Z,100384.69
2018-12-18T13:15:24.637Z,100392.63
2018-12-18T13:17:53.028Z,100387.50
2018-12-18T13:20:21.405Z,100387.45
2018-12-18T13:22:49.776Z,100378.89
2018-12-18T13:25:18.563Z,100384.14
2018-12-18T13:27:46.939Z,100384.05
2018-12-18T13:30:15.344Z,100385.05
2018-12-18T13:32:43.714Z,100377.27
2018-12-18T13:35:12.203Z,100373.42
2018-12-18T13:37:40.557Z,100367.67
2018-12-18T13:40:09.419Z,100361.69
2018-12-18T13:42:37.771Z,100349.23
2018-12-18T13:45:06.618Z,100356.37
2018-12-18T13:47:34.987Z,100353.05
2018-12-18T13:50:04.233Z,100348.41
2018-12-18T13:52:32.683Z,100338.09
2018-12-18T13:55:01.064Z,100339.11
2018-12-18T13:57:29.439Z,100339.87
2018-12-18T13:59:57.815Z,100341.45
2018-12-18T14:02:26.191Z,100339.03
2018-12-18T14:04:54.568Z,100323.09
2018-12-18T14:07:23.069Z,100318.30
2018-12-18T14:09:51.601Z,100318.70
2018-12-18T14:12:19.967Z,100319.58
2018-12-18T14:14:48.331Z,100317.20
2018-12-18T14:17:16.907Z,100316.45
2018-12-18T14:19:45.271Z,100304.75
2018-12-18T14:22:13.671Z,100296.81
2018-12-18T14:24:42.074Z,100287.53
2018-12-18T14:27:10.603Z,100276.75
2018-12-18T14:29:38.979Z,100272.61
2018-12-18T14:32:07.371Z,100276.28
2018-12-18T14:34:35.755Z,100279.70
2018-12-18T14:37:04.161Z,100275.04
2018-12-18T14:39:32.545Z,100281.25
2018-12-18T14:42:00.911Z,100269.91
2018-12-18T14:44:29.304Z,100270.10
2018-12-18T14:46:57.699Z,100270.98
2018-12-18T14:49:26.067Z,100257.92
2018-12-18T14:51:54.479Z,100256.84
2018-12-18T14:54:22.979Z,100250.68
2018-12-18T14:56:51.371Z,100255.59
2018-12-18T14:59:20.066Z,100255.35
2018-12-18T15:01:48.456Z,100250.63
2018-12-18T15:04:16.882Z,100254.84
2018-12-18T15:06:45.373Z,100252.42
2018-12-18T15:09:13.770Z,100243.56
2018-12-18T15:11:42.179Z,100237.39
2018-12-18T15:14:10.557Z,100241.80
2018-12-18T15:16:38.994Z,100239.23
2018-12-18T15:19:07.372Z,100241.34
2018-12-18T15:21:35.760Z,100238.80
2018-12-18T15:24:04.279Z,100241.80
2018-12-18T15:26:32.714Z,100233.59
2018-12-18T15:29:01.110Z,100231.84
2018-12-18T15:31:29.512Z,100228.67
2018-12-18T15:33:57.928Z,100231.66
2018-12-18T15:36:26.324Z,100227.64
2018-12-18T15:38:55.127Z,100225.38
2018-12-18T15:41:23.507Z,100215.81
2018-12-18T15:43:52.566Z,100199.09
2018-12-18T15:46:20.944Z,100188.29
2018-12-18T15:48:51.123Z,100190.86
2018-12-18T15:51:19.507Z,100164.66
2018-12-18T15:53:47.868Z,100167.23
2018-12-18T15:56:16.314Z,100164.04
2018-12-18T15:58:44.676Z,100164.44
2018-12-18T16:01:13.123Z,100157.53
2018-12-18T16:03:41.490Z,100162.34
2018-12-18T16:06:09.871Z,100151.83
2018-12-18T16:08:38.235Z,100152.44
2018-12-18T16:11:06.627Z,100158.73
2018-12-18T16:13:35.001Z,100160.69
2018-12-18T16:16:03.859Z,100161.81
2018-12-18T16:18:32.211Z,100157.38
2018-12-18T16:21:00.652Z,100160.77
2018-12-18T16:23:29.463Z,100166.11
2018-12-18T16:25:57.927Z,100169.09
2018-12-18T16:28:26.291Z,100167.73
2018-12-18T16:30:54.691Z,100165.34
2018-12-18T16:33:23.948Z,100160.92
2018-12-18T16:35:52.339Z,100157.21
2018-12-18T16:38:20.783Z,100160.02
2018-12-18T16:40:49.143Z,100152.82
2018-12-18T16:43:17.563Z,100146.84
2018-12-18T16:45:45.926Z,100140.55
2018-12-18T16:48:14.415Z,100139.81
2018-12-18T16:50:44.498Z,100144.16
2018-12-18T16:53:12.893Z,100146.21
2018-12-18T16:55:41.382Z,100142.28
2018-12-18T16:58:09.815Z,100140.41
2018-12-18T17:00:38.195Z,100137.62
2018-12-18T17:03:06.616Z,100134.30
2018-12-18T17:05:35.084Z,100130.70
2018-12-18T17:08:03.615Z,100130.70
2018-12-18T17:10:33.268Z,100127.50
2018-12-18T17:13:02.021Z,100115.20
2018-12-18T17:15:30.426Z,100116.86
2018-12-18T17:17:59.017Z,100116.22
2018-12-18T17:20:27.493Z,100114.47
2018-12-18T17:22:55.980Z,100113.86
2018-12-18T17:25:24.395Z,100122.94
2018-12-18T17:27:52.776Z,100118.49
2018-12-18T17:30:21.138Z,100119.45
2018-12-18T17:32:49.526Z,100099.42
2018-12-18T17:35:17.942Z,100096.09
2018-12-18T17:37:46.346Z,100098.62
2018-12-18T17:40:15.078Z,100095.39
2018-12-18T17:42:43.552Z,100088.80
2018-12-18T17:45:11.978Z,100073.66
2018-12-18T17:47:41.416Z,100066.54
2018-12-18T17:50:09.924Z,100059.58
2018-12-18T17:52:39.020Z,100054.11
2018-12-18T17:55:07.783Z,100055.67
2018-12-18T17:57:36.454Z,100046.06
2018-12-18T18:00:05.638Z,100042.77
2018-12-18T18:02:34.806Z,100037.09
2018-12-18T18:05:03.241Z,100039.58
2018-12-18T18:07:31.640Z,100039.04
2018-12-18T18:10:00.614Z,100030.89
2018-12-18T18:12:30.148Z,100023.80
2018-12-18T18:14:59.664Z,100012.05
2018-12-18T18:17:28.151Z,100005.77
2018-12-18T18:19:56.625Z,99995.86
2018-12-18T18:22:25.035Z,99989.67
2018-12-18T18:24:53.498Z,99997.49
2018-12-18T18:27:22.276Z,99983.25
2018-12-18T18:29:50.705Z,99977.98
2018-12-18T18:32:19.744Z,99972.52
2018-12-18T18:34:48.150Z,99972.02
2018-12-18T18:37:16.792Z,99968.50
2018-12-18T18:39:45.281Z,99967.61
2018-12-18T18:42:13.671Z,99959.05
2018-12-18T18:44:42.320Z,99956.37
2018-12-18T18:47:10.731Z,99952.53
2018-12-18T18:49:41.167Z,99951.23
2018-12-18T18:52:10.087Z,99945.68
2018-12-18T18:54:38.467Z,99939.30
2018-12-18T18:57:06.878Z,99940.22
2018-12-18T18:59:35.364Z,99935.37
2018-12-18T19:02:03.825Z,99931.63
2018-12-18T19:04:32.467Z,99924.55
2018-12-18T19:07:01.864Z,99923.81
2018-12-18T19:09:30.303Z,99918.45
2018-12-18T19:11:58.795Z,99911.45
2018-12-18T19:14:27.748Z,99908.04
2018-12-18T19:16:56.292Z,99901.24
2018-12-18T19:19:24.711Z,99907.34
2018-12-18T19:21:59.750Z,99909.19
2018-12-18T19:24:28.176Z,99909.42
2018-12-18T19:26:57.641Z,99912.25
2018-12-18T19:29:26.442Z,99917.42
2018-12-18T19:31:55.584Z,99913.95
2018-12-18T19:34:24.871Z,99910.34
2018-12-18T19:36:53.750Z,99916.95
2018-12-18T19:39:23.508Z,99910.21
2018-12-18T19:41:51.888Z,99904.44
2018-12-18T19:44:20.302Z,99899.81
2018-12-18T19:46:52.326Z,99898.34
2018-12-18T19:49:21.292Z,99890.98
2018-12-18T19:51:50.181Z,99885.20
2018-12-18T19:54:19.913Z,99891.27
2018-12-18T19:56:48.693Z,99884.64
2018-12-18T19:59:19.605Z,99882.11
2018-12-18T20:01:48.495Z,99886.03
2018-12-18T20:04:17.469Z,99895.20
2018-12-18T20:06:46.586Z,99899.08
2018-12-18T20:09:16.084Z,99891.17
2018-12-18T20:11:45.025Z,99889.97
2018-12-18T20:14:13.817Z,99887.52
2018-12-18T20:16:42.526Z,99878.27
2018-12-18T20:19:11.285Z,99875.12
2018-12-18T20:21:40.276Z,99876.70
2018-12-18T20:24:09.824Z,99874.66
2018-12-18T20:26:38.667Z,99863.46
2018-12-18T20:29:07.575Z,99852.97
2018-12-18T20:31:37.393Z,99840.30
2018-12-18T20:34:06.300Z,99826.06
2018-12-18T20:36:35.049Z,99810.96
2018-12-18T20:39:05.503Z,99808.59
2018-12-18T20:41:34.433Z,99822.98
2018-12-18T20:44:03.284Z,99830.73
2018-12-18T20:46:34.092Z,99820.94
2018-12-18T20:49:03.302Z,99824.55
2018-12-18T20:51:32.166Z,99828.06
2018-12-18T20:54:01.466Z,99820.84
2018-12-18T20:56:30.996Z,99818.94
2018-12-18T20:59:00.308Z,99806.65
2018-12-18T21:01:29.558Z,99807.53
2018-12-18T21:03:59.976Z,99808.22
2018-12-18T21:06:28.960Z,99806.88
2018-12-18T21:08:57.905Z,99802.58
2018-12-18T21:11:26.631Z,99794.91
2018-12-18T21:13:55.784Z,99800.10
2018-12-18T21:16:25.221Z,99796.98
2018-12-18T21:18:53.721Z,99791.80
2018-12-18T21:21:22.239Z,99787.05
2018-12-18T21:23:50.748Z,99785.64
2018-12-18T21:26:19.475Z,99783.20
2018-12-18T21:28:48.308Z,99780.87
2018-12-18T21:31:16.820Z,99777.99
2018-12-18T21:33:45.348Z,99768.13
2018-12-18T21:36:13.845Z,99764.70
2018-12-18T21:38:42.420Z,99750.77
2018-12-18T21:41:10.970Z,99738.77
2018-12-18T21:43:39.649Z,99728.38
2018-12-18T21:46:08.402Z,99727.86
2018-12-18T21:48:38.231Z,99730.98
2018-12-18T21:51:06.834Z,99726.52
2018-12-18T21:53:35.367Z,99723.17
2018-12-18T21:56:03.895Z,99717.05
2018-12-18T21:58:32.381Z,99715.11
2018-12-18T22:01:00.875Z,99726.95
2018-12-18T22:03:29.352Z,99707.88
2018-12-18T22:05:57.855Z,99711.48
2018-12-18T22:08:27.382Z,99705.36
2018-12-18T22:10:55.948Z,99707.13
2018-12-18T22:13:24.443Z,99700.78
2018-12-18T22:15:53.139Z,99698.33
2018-12-18T22:18:21.619Z,99725.26
2018-12-18T22:20:50.131Z,99729.44
2018-12-18T22:23:18.610Z,99722.05
2018-12-18T22:25:47.066Z,99736.91
2018-12-18T22:28:15.563Z,99729.05
2018-12-18T22:30:44.069Z,99701.69
2018-12-18T22:33:12.424Z,99691.77
2018-12-18T22:35:40.829Z,99697.66
2018-12-18T22:38:09.251Z,99706.61
2018-12-18T22:40:37.672Z,99698.48
2018-12-18T22:43:06.067Z,99706.46
2018-12-18T22:45:34.483Z,99704.20
2018-12-18T22:48:02.894Z,99698.48
2018-12-18T22:50:31.278Z,99697.72
2018-12-18T22:52:59.663Z,99692.35
2018-12-18T22:55:28.055Z,99699.89
2018-12-18T22:57:56.452Z,99705.69
2018-12-18T23:00:30.499Z,99695.19
2018-12-18T23:02:58.870Z,99690.69
2018-12-18T23:05:27.355Z,99681.08
2018-12-18T23:07:55.873Z,99685.92
2018-12-18T23:10:24.255Z,99681.76
2018-12-18T23:12:52.700Z,99673.16
2018-12-18T23:15:21.126Z,99661.02
2018-12-18T23:17:49.557Z,99659.44
2018-12-18T23:20:17.948Z,99641.75
2018-12-18T23:22:46.352Z,99641.89
2018-12-18T23:25:14.732Z,99617.67
2018-12-18T23:27:43.107Z,99624.14
2018-12-18T23:30:11.578Z,99606.77
2018-12-18T23:32:39.940Z,99609.83
2018-12-18T23:35:08.376Z,99612.03
2018-12-18T23:37:36.763Z,99627.94
2018-12-18T23:40:05.339Z,99639.34
2018-12-18T23:42:33.769Z,99644.03
2018-12-18T23:45:02.232Z,99653.55
2018-12-18T23:47:30.671Z,99658.09
2018-12-18T23:49:59.048Z,99642.56
2018-12-18T23:52:27.603Z,99653.14
2018-12-18T23:54:56.019Z,99648.03
2018-12-18T23:57:24.429Z,99657.69
2018-12-18T23:59:52.795Z,99653.59
